Airport View

Enter AWOS ICAO identifier for current METAR.

ex. KFNL

KPVB 022350Z AUTO 22013KT 10SM CLR 32/20 A2979 RMK AO1 T03240196 10336 20299

2 Jun 2020 23:53

Frequency: 120.575

Phone: 608-348-3637

Other Area AWOS: KMRJ - KDBQ - KOVS - KLNR

TAF AMD KDBQ 022026Z 0220/0318 23014KT P6SM FEW150 FM030000 22010KT P6SM SCT100 FM030400 22008KT P6SM -TSRA SCT030 OVC050CB FM030800 23007KT P6SM SCT015 OVC030 FM031400 33008KT P6SM SCT050